sensor_id;sensor_type;location;lat;lon;timestamp;P1;durP1;ratioP1;P2;durP2;ratioP2
65656;SDS011;57397;50.096;14.404;2022-08-07T00:01:58;1.10;;;1.00;;
65656;SDS011;57397;50.096;14.404;2022-08-07T00:04:23;2.28;;;1.00;;
65656;SDS011;57397;50.096;14.404;2022-08-07T00:06:49;2.03;;;1.10;;
65656;SDS011;57397;50.096;14.404;2022-08-07T00:09:14;2.35;;;1.08;;
65656;SDS011;57397;50.096;14.404;2022-08-07T00:11:39;3.60;;;1.30;;
65656;SDS011;57397;50.096;14.404;2022-08-07T00:14:05;2.40;;;1.17;;
65656;SDS011;57397;50.096;14.404;2022-08-07T00:16:30;1.42;;;1.00;;
65656;SDS011;57397;50.096;14.404;2022-08-07T00:18:56;1.92;;;1.00;;
65656;SDS011;57397;50.096;14.404;2022-08-07T00:21:21;3.05;;;1.00;;
65656;SDS011;57397;50.096;14.404;2022-08-07T00:23:47;2.28;;;1.00;;
65656;SDS011;57397;50.096;14.404;2022-08-07T00:26:12;2.15;;;1.10;;
65656;SDS011;57397;50.096;14.404;2022-08-07T00:28:37;1.67;;;1.10;;
65656;SDS011;57397;50.096;14.404;2022-08-07T00:31:06;1.20;;;1.05;;
65656;SDS011;57397;50.096;14.404;2022-08-07T00:33:33;2.55;;;1.02;;
65656;SDS011;57397;50.096;14.404;2022-08-07T00:35:59;2.55;;;1.30;;
65656;SDS011;57397;50.096;14.404;2022-08-07T00:38:25;1.92;;;1.00;;
65656;SDS011;57397;50.096;14.404;2022-08-07T00:40:51;2.08;;;1.10;;
65656;SDS011;57397;50.096;14.404;2022-08-07T00:43:16;1.75;;;1.02;;
65656;SDS011;57397;50.096;14.404;2022-08-07T00:45:42;1.20;;;1.00;;
65656;SDS011;57397;50.096;14.404;2022-08-07T00:48:08;3.40;;;1.10;;
65656;SDS011;57397;50.096;14.404;2022-08-07T00:50:35;3.80;;;1.48;;
65656;SDS011;57397;50.096;14.404;2022-08-07T00:53:01;3.80;;;1.20;;
65656;SDS011;57397;50.096;14.404;2022-08-07T00:55:27;3.08;;;1.20;;
65656;SDS011;57397;50.096;14.404;2022-08-07T00:57:53;2.88;;;1.10;;
65656;SDS011;57397;50.096;14.404;2022-08-07T01:00:19;5.82;;;1.17;;
65656;SDS011;57397;50.096;14.404;2022-08-07T01:02:45;2.17;;;1.10;;
65656;SDS011;57397;50.096;14.404;2022-08-07T01:05:11;2.75;;;1.20;;
65656;SDS011;57397;50.096;14.404;2022-08-07T01:07:37;2.67;;;1.15;;
65656;SDS011;57397;50.096;14.404;2022-08-07T01:10:04;1.90;;;1.00;;
65656;SDS011;57397;50.096;14.404;2022-08-07T01:12:31;1.23;;;0.90;;
65656;SDS011;57397;50.096;14.404;2022-08-07T01:14:57;1.58;;;1.08;;
65656;SDS011;57397;50.096;14.404;2022-08-07T01:17:24;1.45;;;1.00;;
65656;SDS011;57397;50.096;14.404;2022-08-07T01:19:49;1.50;;;1.00;;
65656;SDS011;57397;50.096;14.404;2022-08-07T01:22:16;1.55;;;1.10;;
65656;SDS011;57397;50.096;14.404;2022-08-07T01:24:41;1.40;;;1.10;;
65656;SDS011;57397;50.096;14.404;2022-08-07T01:27:07;2.75;;;1.10;;
65656;SDS011;57397;50.096;14.404;2022-08-07T01:29:33;1.80;;;0.90;;
65656;SDS011;57397;50.096;14.404;2022-08-07T01:31:58;5.60;;;1.40;;
65656;SDS011;57397;50.096;14.404;2022-08-07T01:34:24;3.25;;;1.10;;
65656;SDS011;57397;50.096;14.404;2022-08-07T01:36:50;2.80;;;1.10;;
65656;SDS011;57397;50.096;14.404;2022-08-07T01:39:15;1.65;;;1.10;;
65656;SDS011;57397;50.096;14.404;2022-08-07T01:41:41;1.90;;;1.10;;
65656;SDS011;57397;50.096;14.404;2022-08-07T01:44:07;1.80;;;1.10;;
65656;SDS011;57397;50.096;14.404;2022-08-07T01:46:33;2.65;;;1.10;;
65656;SDS011;57397;50.096;14.404;2022-08-07T01:48:59;1.45;;;1.15;;
65656;SDS011;57397;50.096;14.404;2022-08-07T01:51:24;3.15;;;1.20;;
65656;SDS011;57397;50.096;14.404;2022-08-07T01:53:56;1.75;;;1.05;;
65656;SDS011;57397;50.096;14.404;2022-08-07T01:56:26;3.38;;;1.23;;
65656;SDS011;57397;50.096;14.404;2022-08-07T01:59:14;2.20;;;1.17;;
65656;SDS011;57397;50.096;14.404;2022-08-07T02:01:45;2.58;;;1.10;;
65656;SDS011;57397;50.096;14.404;2022-08-07T02:04:15;3.47;;;1.23;;
65656;SDS011;57397;50.096;14.404;2022-08-07T02:06:53;1.55;;;1.10;;
65656;SDS011;57397;50.096;14.404;2022-08-07T02:09:20;2.65;;;1.00;;
65656;SDS011;57397;50.096;14.404;2022-08-07T02:11:47;2.35;;;1.10;;
65656;SDS011;57397;50.096;14.404;2022-08-07T02:14:14;1.55;;;1.10;;
65656;SDS011;57397;50.096;14.404;2022-08-07T02:16:41;2.03;;;1.10;;
65656;SDS011;57397;50.096;14.404;2022-08-07T02:19:08;4.15;;;1.20;;
65656;SDS011;57397;50.096;14.404;2022-08-07T02:21:36;2.22;;;1.30;;
65656;SDS011;57397;50.096;14.404;2022-08-07T02:24:03;1.92;;;1.23;;
65656;SDS011;57397;50.096;14.404;2022-08-07T02:26:29;2.95;;;1.48;;
65656;SDS011;57397;50.096;14.404;2022-08-07T02:28:56;5.10;;;1.50;;
65656;SDS011;57397;50.096;14.404;2022-08-07T02:31:22;2.88;;;1.50;;
65656;SDS011;57397;50.096;14.404;2022-08-07T02:33:48;3.45;;;1.30;;
65656;SDS011;57397;50.096;14.404;2022-08-07T02:36:14;4.28;;;1.30;;
65656;SDS011;57397;50.096;14.404;2022-08-07T02:38:40;2.35;;;1.17;;
65656;SDS011;57397;50.096;14.404;2022-08-07T02:41:06;2.42;;;1.45;;
65656;SDS011;57397;50.096;14.404;2022-08-07T02:43:33;2.10;;;1.48;;
65656;SDS011;57397;50.096;14.404;2022-08-07T02:45:59;3.20;;;1.40;;
65656;SDS011;57397;50.096;14.404;2022-08-07T02:48:26;2.58;;;1.55;;
65656;SDS011;57397;50.096;14.404;2022-08-07T02:50:52;3.38;;;1.35;;
65656;SDS011;57397;50.096;14.404;2022-08-07T02:53:41;1.88;;;1.50;;
65656;SDS011;57397;50.096;14.404;2022-08-07T02:56:06;3.20;;;1.40;;
65656;SDS011;57397;50.096;14.404;2022-08-07T02:58:33;2.75;;;1.33;;
65656;SDS011;57397;50.096;14.404;2022-08-07T03:00:59;6.18;;;1.85;;
65656;SDS011;57397;50.096;14.404;2022-08-07T03:03:26;2.00;;;1.33;;
65656;SDS011;57397;50.096;14.404;2022-08-07T03:05:54;1.90;;;1.08;;
65656;SDS011;57397;50.096;14.404;2022-08-07T03:08:20;2.95;;;1.20;;
65656;SDS011;57397;50.096;14.404;2022-08-07T03:10:46;2.55;;;1.25;;
65656;SDS011;57397;50.096;14.404;2022-08-07T03:13:16;3.20;;;1.20;;
65656;SDS011;57397;50.096;14.404;2022-08-07T03:15:42;1.88;;;1.13;;
65656;SDS011;57397;50.096;14.404;2022-08-07T03:18:08;1.60;;;1.30;;
65656;SDS011;57397;50.096;14.404;2022-08-07T03:20:34;2.83;;;1.52;;
65656;SDS011;57397;50.096;14.404;2022-08-07T03:22:59;1.35;;;1.25;;
65656;SDS011;57397;50.096;14.404;2022-08-07T03:25:26;1.38;;;1.17;;
65656;SDS011;57397;50.096;14.404;2022-08-07T03:27:52;3.08;;;1.40;;
65656;SDS011;57397;50.096;14.404;2022-08-07T03:30:18;2.65;;;1.20;;
65656;SDS011;57397;50.096;14.404;2022-08-07T03:32:45;2.75;;;1.40;;
65656;SDS011;57397;50.096;14.404;2022-08-07T03:35:12;3.83;;;1.42;;
65656;SDS011;57397;50.096;14.404;2022-08-07T03:37:42;1.65;;;1.30;;
65656;SDS011;57397;50.096;14.404;2022-08-07T03:40:08;1.70;;;1.50;;
65656;SDS011;57397;50.096;14.404;2022-08-07T03:42:34;2.97;;;1.50;;
65656;SDS011;57397;50.096;14.404;2022-08-07T03:45:00;5.53;;;1.50;;
65656;SDS011;57397;50.096;14.404;2022-08-07T03:47:26;2.63;;;1.50;;
65656;SDS011;57397;50.096;14.404;2022-08-07T03:49:52;2.15;;;1.42;;
65656;SDS011;57397;50.096;14.404;2022-08-07T03:52:19;2.33;;;1.30;;
65656;SDS011;57397;50.096;14.404;2022-08-07T03:54:46;1.40;;;1.27;;
65656;SDS011;57397;50.096;14.404;2022-08-07T03:57:12;1.95;;;1.30;;
65656;SDS011;57397;50.096;14.404;2022-08-07T03:59:38;1.48;;;1.30;;
65656;SDS011;57397;50.096;14.404;2022-08-07T04:02:04;3.95;;;1.27;;
65656;SDS011;57397;50.096;14.404;2022-08-07T04:04:33;1.70;;;1.40;;
65656;SDS011;57397;50.096;14.404;2022-08-07T04:06:58;1.58;;;1.48;;
65656;SDS011;57397;50.096;14.404;2022-08-07T04:09:24;3.28;;;1.30;;
65656;SDS011;57397;50.096;14.404;2022-08-07T04:11:50;1.55;;;1.30;;
65656;SDS011;57397;50.096;14.404;2022-08-07T04:14:15;3.70;;;1.25;;
65656;SDS011;57397;50.096;14.404;2022-08-07T04:16:41;2.95;;;1.30;;
65656;SDS011;57397;50.096;14.404;2022-08-07T04:19:07;2.28;;;1.30;;
65656;SDS011;57397;50.096;14.404;2022-08-07T04:21:32;2.70;;;1.40;;
65656;SDS011;57397;50.096;14.404;2022-08-07T04:23:58;1.40;;;1.30;;
65656;SDS011;57397;50.096;14.404;2022-08-07T04:26:24;1.98;;;1.20;;
65656;SDS011;57397;50.096;14.404;2022-08-07T04:28:49;2.55;;;1.20;;
65656;SDS011;57397;50.096;14.404;2022-08-07T04:31:15;2.13;;;1.10;;
65656;SDS011;57397;50.096;14.404;2022-08-07T04:33:40;1.45;;;1.20;;
65656;SDS011;57397;50.096;14.404;2022-08-07T04:36:06;1.33;;;1.13;;
65656;SDS011;57397;50.096;14.404;2022-08-07T04:38:35;2.05;;;1.30;;
65656;SDS011;57397;50.096;14.404;2022-08-07T04:41:02;1.38;;;1.10;;
65656;SDS011;57397;50.096;14.404;2022-08-07T04:43:35;2.05;;;1.27;;
65656;SDS011;57397;50.096;14.404;2022-08-07T04:48:56;1.92;;;1.20;;
65656;SDS011;57397;50.096;14.404;2022-08-07T04:54:31;2.17;;;1.40;;
65656;SDS011;57397;50.096;14.404;2022-08-07T05:02:21;1.90;;;1.35;;
65656;SDS011;57397;50.096;14.404;2022-08-07T05:07:39;1.90;;;1.20;;
65656;SDS011;57397;50.096;14.404;2022-08-07T05:10:11;2.08;;;1.58;;
65656;SDS011;57397;50.096;14.404;2022-08-07T05:12:50;1.77;;;1.50;;
65656;SDS011;57397;50.096;14.404;2022-08-07T05:15:23;2.13;;;1.55;;
65656;SDS011;57397;50.096;14.404;2022-08-07T05:17:56;2.10;;;1.48;;
65656;SDS011;57397;50.096;14.404;2022-08-07T05:20:24;1.67;;;1.27;;
65656;SDS011;57397;50.096;14.404;2022-08-07T05:22:58;1.70;;;1.40;;
65656;SDS011;57397;50.096;14.404;2022-08-07T05:25:28;3.27;;;1.50;;
65656;SDS011;57397;50.096;14.404;2022-08-07T05:27:53;1.83;;;1.35;;
65656;SDS011;57397;50.096;14.404;2022-08-07T05:30:20;2.85;;;1.50;;
65656;SDS011;57397;50.096;14.404;2022-08-07T05:32:46;1.83;;;1.40;;
65656;SDS011;57397;50.096;14.404;2022-08-07T05:35:12;3.70;;;1.52;;
65656;SDS011;57397;50.096;14.404;2022-08-07T05:37:39;2.05;;;1.45;;
65656;SDS011;57397;50.096;14.404;2022-08-07T05:40:04;2.13;;;1.40;;
65656;SDS011;57397;50.096;14.404;2022-08-07T05:42:33;1.38;;;1.27;;
65656;SDS011;57397;50.096;14.404;2022-08-07T05:44:59;1.98;;;1.45;;
65656;SDS011;57397;50.096;14.404;2022-08-07T05:47:25;1.45;;;1.30;;
65656;SDS011;57397;50.096;14.404;2022-08-07T05:49:50;2.03;;;1.40;;
65656;SDS011;57397;50.096;14.404;2022-08-07T05:52:17;2.40;;;1.40;;
65656;SDS011;57397;50.096;14.404;2022-08-07T05:54:43;2.63;;;1.50;;
65656;SDS011;57397;50.096;14.404;2022-08-07T05:57:11;1.70;;;1.50;;
65656;SDS011;57397;50.096;14.404;2022-08-07T05:59:39;2.47;;;1.40;;
65656;SDS011;57397;50.096;14.404;2022-08-07T06:02:06;2.38;;;1.80;;
65656;SDS011;57397;50.096;14.404;2022-08-07T06:04:36;2.33;;;1.35;;
65656;SDS011;57397;50.096;14.404;2022-08-07T06:07:03;1.70;;;1.40;;
65656;SDS011;57397;50.096;14.404;2022-08-07T06:09:33;2.08;;;1.60;;
65656;SDS011;57397;50.096;14.404;2022-08-07T06:11:59;1.90;;;1.38;;
65656;SDS011;57397;50.096;14.404;2022-08-07T06:14:25;2.75;;;1.40;;
65656;SDS011;57397;50.096;14.404;2022-08-07T06:16:50;2.78;;;1.40;;
65656;SDS011;57397;50.096;14.404;2022-08-07T06:19:16;2.92;;;1.60;;
65656;SDS011;57397;50.096;14.404;2022-08-07T06:21:43;3.65;;;1.70;;
65656;SDS011;57397;50.096;14.404;2022-08-07T06:24:10;4.75;;;1.70;;
65656;SDS011;57397;50.096;14.404;2022-08-07T06:26:39;2.22;;;1.60;;
65656;SDS011;57397;50.096;14.404;2022-08-07T06:29:07;1.83;;;1.50;;
65656;SDS011;57397;50.096;14.404;2022-08-07T06:31:34;2.97;;;1.63;;
65656;SDS011;57397;50.096;14.404;2022-08-07T06:33:59;4.30;;;1.70;;
65656;SDS011;57397;50.096;14.404;2022-08-07T06:36:28;2.10;;;1.52;;
65656;SDS011;57397;50.096;14.404;2022-08-07T06:38:54;1.90;;;1.67;;
65656;SDS011;57397;50.096;14.404;2022-08-07T06:41:31;1.83;;;1.52;;
65656;SDS011;57397;50.096;14.404;2022-08-07T06:44:00;1.92;;;1.40;;
65656;SDS011;57397;50.096;14.404;2022-08-07T06:46:26;2.45;;;1.40;;
65656;SDS011;57397;50.096;14.404;2022-08-07T06:48:51;3.65;;;1.42;;
65656;SDS011;57397;50.096;14.404;2022-08-07T06:51:19;1.90;;;1.30;;
65656;SDS011;57397;50.096;14.404;2022-08-07T06:53:46;3.25;;;1.48;;
65656;SDS011;57397;50.096;14.404;2022-08-07T06:56:12;2.38;;;1.63;;
65656;SDS011;57397;50.096;14.404;2022-08-07T06:58:39;2.08;;;1.60;;
65656;SDS011;57397;50.096;14.404;2022-08-07T07:01:06;2.47;;;1.63;;
65656;SDS011;57397;50.096;14.404;2022-08-07T07:03:33;1.70;;;1.40;;
65656;SDS011;57397;50.096;14.404;2022-08-07T07:06:01;2.60;;;1.60;;
65656;SDS011;57397;50.096;14.404;2022-08-07T07:08:28;2.80;;;1.48;;
65656;SDS011;57397;50.096;14.404;2022-08-07T07:10:55;15.20;;;2.00;;
65656;SDS011;57397;50.096;14.404;2022-08-07T07:13:23;4.30;;;1.55;;
65656;SDS011;57397;50.096;14.404;2022-08-07T07:15:57;2.47;;;1.33;;
65656;SDS011;57397;50.096;14.404;2022-08-07T07:18:30;4.03;;;1.50;;
65656;SDS011;57397;50.096;14.404;2022-08-07T07:21:02;4.45;;;1.38;;
65656;SDS011;57397;50.096;14.404;2022-08-07T07:23:31;3.85;;;1.50;;
65656;SDS011;57397;50.096;14.404;2022-08-07T07:25:58;2.60;;;1.35;;
65656;SDS011;57397;50.096;14.404;2022-08-07T07:28:37;4.60;;;1.60;;
65656;SDS011;57397;50.096;14.404;2022-08-07T07:31:31;2.72;;;1.50;;
65656;SDS011;57397;50.096;14.404;2022-08-07T07:34:06;3.55;;;1.50;;
65656;SDS011;57397;50.096;14.404;2022-08-07T07:36:33;1.60;;;1.40;;
65656;SDS011;57397;50.096;14.404;2022-08-07T07:39:03;2.20;;;1.40;;
65656;SDS011;57397;50.096;14.404;2022-08-07T07:41:31;2.70;;;1.65;;
65656;SDS011;57397;50.096;14.404;2022-08-07T07:43:58;1.83;;;1.40;;
65656;SDS011;57397;50.096;14.404;2022-08-07T07:46:27;3.83;;;1.50;;
65656;SDS011;57397;50.096;14.404;2022-08-07T07:48:58;2.42;;;1.40;;
65656;SDS011;57397;50.096;14.404;2022-08-07T07:51:24;2.20;;;1.40;;
65656;SDS011;57397;50.096;14.404;2022-08-07T07:53:57;2.85;;;1.40;;
65656;SDS011;57397;50.096;14.404;2022-08-07T07:56:24;2.97;;;1.52;;
65656;SDS011;57397;50.096;14.404;2022-08-07T07:58:50;2.97;;;1.70;;
65656;SDS011;57397;50.096;14.404;2022-08-07T08:01:30;1.73;;;1.38;;
65656;SDS011;57397;50.096;14.404;2022-08-07T08:03:59;2.20;;;1.60;;
65656;SDS011;57397;50.096;14.404;2022-08-07T08:06:29;4.82;;;1.65;;
65656;SDS011;57397;50.096;14.404;2022-08-07T08:08:57;2.03;;;1.60;;
65656;SDS011;57397;50.096;14.404;2022-08-07T08:11:23;2.75;;;1.60;;
65656;SDS011;57397;50.096;14.404;2022-08-07T08:13:49;3.05;;;1.98;;
65656;SDS011;57397;50.096;14.404;2022-08-07T08:16:17;3.58;;;1.60;;
65656;SDS011;57397;50.096;14.404;2022-08-07T08:18:44;2.15;;;1.73;;
65656;SDS011;57397;50.096;14.404;2022-08-07T08:21:10;2.13;;;1.65;;
65656;SDS011;57397;50.096;14.404;2022-08-07T08:24:02;1.70;;;1.58;;
65656;SDS011;57397;50.096;14.404;2022-08-07T08:26:46;2.70;;;1.60;;
65656;SDS011;57397;50.096;14.404;2022-08-07T08:29:41;2.72;;;1.70;;
65656;SDS011;57397;50.096;14.404;2022-08-07T08:32:08;3.88;;;1.60;;
65656;SDS011;57397;50.096;14.404;2022-08-07T08:34:37;10.43;;;2.28;;
65656;SDS011;57397;50.096;14.404;2022-08-07T08:37:05;5.95;;;1.75;;
65656;SDS011;57397;50.096;14.404;2022-08-07T08:39:32;3.95;;;1.90;;
65656;SDS011;57397;50.096;14.404;2022-08-07T08:42:02;4.72;;;2.00;;
65656;SDS011;57397;50.096;14.404;2022-08-07T08:44:34;7.88;;;2.10;;
65656;SDS011;57397;50.096;14.404;2022-08-07T08:50:22;9.40;;;1.80;;
65656;SDS011;57397;50.096;14.404;2022-08-07T08:53:07;5.07;;;1.67;;
65656;SDS011;57397;50.096;14.404;2022-08-07T09:01:11;5.43;;;1.83;;
65656;SDS011;57397;50.096;14.404;2022-08-07T09:03:43;3.97;;;1.70;;
65656;SDS011;57397;50.096;14.404;2022-08-07T09:06:37;4.30;;;1.80;;
65656;SDS011;57397;50.096;14.404;2022-08-07T09:15:30;2.42;;;1.48;;
65656;SDS011;57397;50.096;14.404;2022-08-07T09:26:26;4.18;;;1.70;;
65656;SDS011;57397;50.096;14.404;2022-08-07T09:29:19;2.70;;;1.52;;
65656;SDS011;57397;50.096;14.404;2022-08-07T09:31:59;2.35;;;1.30;;
65656;SDS011;57397;50.096;14.404;2022-08-07T09:34:42;5.95;;;1.67;;
65656;SDS011;57397;50.096;14.404;2022-08-07T09:37:14;3.78;;;1.50;;
65656;SDS011;57397;50.096;14.404;2022-08-07T09:40:19;6.20;;;1.52;;
65656;SDS011;57397;50.096;14.404;2022-08-07T09:53:08;4.47;;;1.70;;
65656;SDS011;57397;50.096;14.404;2022-08-07T10:06:48;2.65;;;1.20;;
65656;SDS011;57397;50.096;14.404;2022-08-07T10:12:20;1.73;;;1.27;;
65656;SDS011;57397;50.096;14.404;2022-08-07T10:23:54;1.55;;;1.13;;
65656;SDS011;57397;50.096;14.404;2022-08-07T10:43:55;1.70;;;1.20;;
65656;SDS011;57397;50.096;14.404;2022-08-07T10:46:27;1.40;;;1.30;;
65656;SDS011;57397;50.096;14.404;2022-08-07T10:54:14;2.05;;;1.15;;
65656;SDS011;57397;50.096;14.404;2022-08-07T11:02:34;1.20;;;1.10;;
65656;SDS011;57397;50.096;14.404;2022-08-07T11:11:36;4.60;;;1.60;;
65656;SDS011;57397;50.096;14.404;2022-08-07T11:13:58;2.33;;;1.10;;
65656;SDS011;57397;50.096;14.404;2022-08-07T11:19:49;1.60;;;1.10;;
65656;SDS011;57397;50.096;14.404;2022-08-07T11:22:26;2.25;;;1.30;;
65656;SDS011;57397;50.096;14.404;2022-08-07T11:28:05;1.35;;;1.13;;
65656;SDS011;57397;50.096;14.404;2022-08-07T11:30:14;1.35;;;1.23;;
65656;SDS011;57397;50.096;14.404;2022-08-07T11:32:46;1.20;;;1.10;;
65656;SDS011;57397;50.096;14.404;2022-08-07T11:35:19;1.73;;;1.23;;
65656;SDS011;57397;50.096;14.404;2022-08-07T11:37:57;1.38;;;1.23;;
65656;SDS011;57397;50.096;14.404;2022-08-07T11:57:36;1.30;;;1.10;;
65656;SDS011;57397;50.096;14.404;2022-08-07T12:00:17;2.15;;;1.15;;
65656;SDS011;57397;50.096;14.404;2022-08-07T12:05:45;3.35;;;1.20;;
65656;SDS011;57397;50.096;14.404;2022-08-07T12:11:38;1.15;;;1.05;;
65656;SDS011;57397;50.096;14.404;2022-08-07T12:16:35;1.98;;;1.05;;
65656;SDS011;57397;50.096;14.404;2022-08-07T12:19:12;1.98;;;1.17;;
65656;SDS011;57397;50.096;14.404;2022-08-07T12:21:51;3.65;;;1.20;;
65656;SDS011;57397;50.096;14.404;2022-08-07T12:27:01;3.45;;;1.20;;
65656;SDS011;57397;50.096;14.404;2022-08-07T12:29:50;4.63;;;1.40;;
65656;SDS011;57397;50.096;14.404;2022-08-07T12:35:06;2.33;;;1.15;;
65656;SDS011;57397;50.096;14.404;2022-08-07T12:37:33;3.60;;;1.33;;
65656;SDS011;57397;50.096;14.404;2022-08-07T12:40:00;2.17;;;1.27;;
65656;SDS011;57397;50.096;14.404;2022-08-07T12:42:26;1.90;;;1.20;;
65656;SDS011;57397;50.096;14.404;2022-08-07T12:44:52;1.92;;;1.15;;
65656;SDS011;57397;50.096;14.404;2022-08-07T12:50:05;1.85;;;1.10;;
65656;SDS011;57397;50.096;14.404;2022-08-07T12:55:30;1.55;;;1.35;;
65656;SDS011;57397;50.096;14.404;2022-08-07T12:58:02;4.20;;;1.60;;
65656;SDS011;57397;50.096;14.404;2022-08-07T13:00:33;5.07;;;1.30;;
65656;SDS011;57397;50.096;14.404;2022-08-07T13:05:57;3.83;;;1.30;;
65656;SDS011;57397;50.096;14.404;2022-08-07T13:08:55;3.13;;;1.40;;
65656;SDS011;57397;50.096;14.404;2022-08-07T13:11:36;2.08;;;1.33;;
65656;SDS011;57397;50.096;14.404;2022-08-07T13:17:20;1.73;;;1.30;;
65656;SDS011;57397;50.096;14.404;2022-08-07T13:19:58;2.00;;;1.20;;
65656;SDS011;57397;50.096;14.404;2022-08-07T13:25:28;4.35;;;1.30;;
65656;SDS011;57397;50.096;14.404;2022-08-07T13:28:17;4.75;;;1.20;;
65656;SDS011;57397;50.096;14.404;2022-08-07T13:31:10;3.42;;;1.25;;
65656;SDS011;57397;50.096;14.404;2022-08-07T13:36:15;2.40;;;1.38;;
65656;SDS011;57397;50.096;14.404;2022-08-07T13:38:48;3.08;;;1.40;;
65656;SDS011;57397;50.096;14.404;2022-08-07T13:41:24;2.67;;;1.30;;
65656;SDS011;57397;50.096;14.404;2022-08-07T13:43:59;2.65;;;1.38;;
65656;SDS011;57397;50.096;14.404;2022-08-07T13:46:30;1.85;;;1.20;;
65656;SDS011;57397;50.096;14.404;2022-08-07T13:48:58;2.08;;;1.42;;
65656;SDS011;57397;50.096;14.404;2022-08-07T13:51:30;1.80;;;1.55;;
65656;SDS011;57397;50.096;14.404;2022-08-07T13:54:06;2.80;;;1.20;;
65656;SDS011;57397;50.096;14.404;2022-08-07T13:56:37;3.33;;;1.20;;
65656;SDS011;57397;50.096;14.404;2022-08-07T13:59:12;2.83;;;1.55;;
65656;SDS011;57397;50.096;14.404;2022-08-07T14:01:50;1.95;;;1.25;;
65656;SDS011;57397;50.096;14.404;2022-08-07T14:04:18;1.85;;;1.30;;
65656;SDS011;57397;50.096;14.404;2022-08-07T14:06:46;2.17;;;1.20;;
65656;SDS011;57397;50.096;14.404;2022-08-07T14:09:17;2.67;;;1.60;;
65656;SDS011;57397;50.096;14.404;2022-08-07T14:11:53;1.92;;;1.58;;
65656;SDS011;57397;50.096;14.404;2022-08-07T14:16:49;3.22;;;1.50;;
65656;SDS011;57397;50.096;14.404;2022-08-07T14:19:18;1.75;;;1.27;;
65656;SDS011;57397;50.096;14.404;2022-08-07T14:21:49;2.15;;;1.40;;
65656;SDS011;57397;50.096;14.404;2022-08-07T14:24:25;2.45;;;1.50;;
65656;SDS011;57397;50.096;14.404;2022-08-07T14:26:56;2.15;;;1.55;;
65656;SDS011;57397;50.096;14.404;2022-08-07T14:29:25;2.33;;;1.40;;
65656;SDS011;57397;50.096;14.404;2022-08-07T14:31:54;1.23;;;1.08;;
65656;SDS011;57397;50.096;14.404;2022-08-07T14:34:27;1.40;;;1.20;;
65656;SDS011;57397;50.096;14.404;2022-08-07T14:37:02;1.33;;;1.20;;
65656;SDS011;57397;50.096;14.404;2022-08-07T14:39:29;2.10;;;1.20;;
65656;SDS011;57397;50.096;14.404;2022-08-07T14:41:56;2.72;;;1.20;;
65656;SDS011;57397;50.096;14.404;2022-08-07T14:44:23;1.42;;;1.20;;
65656;SDS011;57397;50.096;14.404;2022-08-07T14:46:50;2.92;;;1.30;;
65656;SDS011;57397;50.096;14.404;2022-08-07T14:49:18;2.85;;;1.20;;
65656;SDS011;57397;50.096;14.404;2022-08-07T14:51:49;2.00;;;1.27;;
65656;SDS011;57397;50.096;14.404;2022-08-07T14:54:15;1.30;;;1.13;;
65656;SDS011;57397;50.096;14.404;2022-08-07T14:56:43;1.25;;;1.10;;
65656;SDS011;57397;50.096;14.404;2022-08-07T14:59:11;1.20;;;1.10;;
65656;SDS011;57397;50.096;14.404;2022-08-07T15:01:38;1.27;;;1.10;;
65656;SDS011;57397;50.096;14.404;2022-08-07T15:04:06;5.43;;;1.30;;
65656;SDS011;57397;50.096;14.404;2022-08-07T15:06:33;1.75;;;1.40;;
65656;SDS011;57397;50.096;14.404;2022-08-07T15:09:09;2.45;;;1.20;;
65656;SDS011;57397;50.096;14.404;2022-08-07T15:11:38;1.88;;;1.25;;
65656;SDS011;57397;50.096;14.404;2022-08-07T15:14:07;1.52;;;1.33;;
65656;SDS011;57397;50.096;14.404;2022-08-07T15:16:44;1.30;;;1.20;;
65656;SDS011;57397;50.096;14.404;2022-08-07T15:21:41;1.40;;;1.20;;
65656;SDS011;57397;50.096;14.404;2022-08-07T15:24:14;1.40;;;1.30;;
65656;SDS011;57397;50.096;14.404;2022-08-07T15:26:43;1.55;;;1.10;;
65656;SDS011;57397;50.096;14.404;2022-08-07T15:29:12;1.15;;;1.05;;
65656;SDS011;57397;50.096;14.404;2022-08-07T15:31:38;1.33;;;1.20;;
65656;SDS011;57397;50.096;14.404;2022-08-07T15:34:04;2.38;;;1.10;;
65656;SDS011;57397;50.096;14.404;2022-08-07T15:36:31;2.60;;;1.10;;
65656;SDS011;57397;50.096;14.404;2022-08-07T15:39:00;1.90;;;1.00;;
65656;SDS011;57397;50.096;14.404;2022-08-07T15:41:29;3.22;;;1.00;;
65656;SDS011;57397;50.096;14.404;2022-08-07T15:44:02;6.45;;;1.40;;
65656;SDS011;57397;50.096;14.404;2022-08-07T15:46:30;4.83;;;1.20;;
65656;SDS011;57397;50.096;14.404;2022-08-07T15:48:58;2.20;;;1.13;;
65656;SDS011;57397;50.096;14.404;2022-08-07T15:51:25;3.75;;;1.20;;
65656;SDS011;57397;50.096;14.404;2022-08-07T15:53:57;1.20;;;1.05;;
65656;SDS011;57397;50.096;14.404;2022-08-07T15:56:28;1.35;;;1.15;;
65656;SDS011;57397;50.096;14.404;2022-08-07T15:58:58;3.00;;;1.15;;
65656;SDS011;57397;50.096;14.404;2022-08-07T16:01:36;2.50;;;1.10;;
65656;SDS011;57397;50.096;14.404;2022-08-07T16:04:10;2.05;;;1.00;;
65656;SDS011;57397;50.096;14.404;2022-08-07T16:06:47;1.55;;;1.10;;
65656;SDS011;57397;50.096;14.404;2022-08-07T16:20:18;1.38;;;1.08;;
65656;SDS011;57397;50.096;14.404;2022-08-07T16:31:05;2.72;;;1.00;;
65656;SDS011;57397;50.096;14.404;2022-08-07T16:33:45;1.95;;;1.10;;
65656;SDS011;57397;50.096;14.404;2022-08-07T16:39:08;1.10;;;1.00;;
65656;SDS011;57397;50.096;14.404;2022-08-07T16:52:52;1.52;;;1.10;;
65656;SDS011;57397;50.096;14.404;2022-08-07T17:05:09;1.67;;;1.15;;
65656;SDS011;57397;50.096;14.404;2022-08-07T17:07:50;2.30;;;1.00;;
65656;SDS011;57397;50.096;14.404;2022-08-07T17:13:00;1.20;;;1.00;;
65656;SDS011;57397;50.096;14.404;2022-08-07T17:18:36;13.27;;;2.00;;
65656;SDS011;57397;50.096;14.404;2022-08-07T17:21:13;21.80;;;2.35;;
65656;SDS011;57397;50.096;14.404;2022-08-07T17:23:50;14.27;;;1.95;;
65656;SDS011;57397;50.096;14.404;2022-08-07T17:26:22;6.68;;;1.60;;
65656;SDS011;57397;50.096;14.404;2022-08-07T17:32:14;15.80;;;1.90;;
65656;SDS011;57397;50.096;14.404;2022-08-07T17:34:44;7.40;;;1.20;;
65656;SDS011;57397;50.096;14.404;2022-08-07T17:37:37;22.20;;;2.08;;
65656;SDS011;57397;50.096;14.404;2022-08-07T17:42:59;8.13;;;1.40;;
65656;SDS011;57397;50.096;14.404;2022-08-07T17:45:35;8.80;;;1.60;;
65656;SDS011;57397;50.096;14.404;2022-08-07T17:48:05;5.70;;;1.17;;
65656;SDS011;57397;50.096;14.404;2022-08-07T17:50:48;7.13;;;1.20;;
65656;SDS011;57397;50.096;14.404;2022-08-07T17:54:19;6.05;;;1.52;;
65656;SDS011;57397;50.096;14.404;2022-08-07T18:04:11;7.55;;;1.50;;
65656;SDS011;57397;50.096;14.404;2022-08-07T18:09:29;4.15;;;1.23;;
65656;SDS011;57397;50.096;14.404;2022-08-07T18:12:01;5.38;;;1.40;;
65656;SDS011;57397;50.096;14.404;2022-08-07T18:20:08;2.28;;;0.98;;
65656;SDS011;57397;50.096;14.404;2022-08-07T18:22:37;4.72;;;1.33;;
65656;SDS011;57397;50.096;14.404;2022-08-07T18:25:10;3.92;;;1.30;;
65656;SDS011;57397;50.096;14.404;2022-08-07T18:27:53;6.28;;;1.42;;
65656;SDS011;57397;50.096;14.404;2022-08-07T18:30:31;6.32;;;1.50;;
65656;SDS011;57397;50.096;14.404;2022-08-07T18:33:05;2.50;;;1.38;;
65656;SDS011;57397;50.096;14.404;2022-08-07T18:35:47;5.38;;;1.30;;
65656;SDS011;57397;50.096;14.404;2022-08-07T18:50:04;1.48;;;1.15;;
65656;SDS011;57397;50.096;14.404;2022-08-07T18:53:00;4.78;;;1.23;;
65656;SDS011;57397;50.096;14.404;2022-08-07T18:55:37;5.22;;;1.38;;
65656;SDS011;57397;50.096;14.404;2022-08-07T18:58:21;5.63;;;1.20;;
65656;SDS011;57397;50.096;14.404;2022-08-07T19:03:25;3.45;;;1.20;;